createdAt,value
2023-01-13T01:45:31.819Z,10.11
2023-01-13T05:50:35.635Z,7.92
2023-01-13T06:17:12.323Z,8.07
2023-01-13T06:50:11.802Z,8.38
2023-01-13T06:51:11.758Z,8.47
2023-01-13T06:52:11.764Z,8.44
2023-01-13T06:53:11.750Z,8.48
2023-01-13T06:54:11.989Z,8.44
2023-01-13T06:55:11.726Z,8.44
2023-01-13T06:56:11.917Z,8.45
2023-01-13T06:57:11.696Z,8.43
2023-01-13T06:58:11.723Z,8.45
2023-01-13T07:01:17.845Z,8.43
2023-01-13T07:02:11.739Z,8.41
2023-01-13T07:04:11.592Z,8.40
2023-01-13T07:05:11.570Z,8.43
2023-01-13T07:06:11.775Z,8.41
2023-01-13T07:07:11.562Z,8.44
2023-01-13T07:08:17.556Z,8.47
2023-01-13T07:09:11.739Z,8.38
2023-01-13T07:10:11.527Z,8.45
2023-01-13T07:11:11.490Z,8.45
2023-01-13T07:12:11.838Z,8.47
2023-01-13T07:13:11.486Z,8.50
2023-01-13T07:14:17.479Z,8.43
2023-01-13T07:15:11.668Z,8.45
2023-01-13T07:16:11.508Z,8.48
2023-01-13T07:17:11.646Z,8.47
2023-01-13T07:18:11.428Z,8.47
2023-01-13T07:19:11.429Z,8.53
2023-01-13T07:20:11.409Z,8.53
2023-01-13T07:21:11.392Z,8.53
2023-01-13T07:22:11.409Z,8.55
2023-01-13T07:23:17.374Z,8.59
2023-01-13T07:24:11.365Z,8.59
2023-01-13T07:25:11.347Z,8.58
2023-01-13T07:26:11.335Z,8.61
2023-01-13T07:27:11.336Z,8.61
2023-01-13T07:28:11.414Z,8.59
2023-01-13T07:29:11.297Z,8.63
2023-01-13T07:30:11.309Z,8.66
2023-01-13T07:31:11.387Z,8.68
2023-01-13T07:32:11.288Z,8.73
2023-01-13T07:33:11.269Z,8.77
2023-01-13T07:34:11.244Z,8.74
2023-01-13T07:35:11.245Z,8.74
2023-01-13T07:36:11.246Z,8.76
2023-01-13T07:37:48.158Z,8.71
2023-01-13T07:38:47.915Z,8.73
2023-01-13T07:40:24.814Z,8.65
2023-01-13T07:41:24.588Z,8.63
2023-01-13T07:42:24.593Z,8.65
2023-01-13T07:43:24.576Z,8.62
2023-01-13T07:44:24.563Z,8.62
2023-01-13T07:45:24.554Z,8.61
2023-01-13T07:46:24.749Z,8.62
2023-01-13T07:47:24.521Z,8.66
2023-01-13T07:48:24.509Z,8.68
2023-01-13T07:49:24.515Z,8.65
2023-01-13T07:50:24.486Z,8.68
2023-01-13T07:51:24.705Z,8.68
2023-01-13T07:52:24.470Z,8.66
2023-01-13T07:53:24.494Z,8.63
2023-01-13T07:54:40.318Z,8.68
2023-01-13T07:55:25.655Z,8.63
2023-01-13T07:56:24.428Z,8.65
2023-01-13T07:57:24.420Z,8.66
2023-01-13T07:58:24.419Z,8.65
2023-01-13T07:59:24.402Z,8.71
2023-01-13T08:00:24.401Z,8.73
2023-01-13T08:02:37.873Z,8.73
2023-01-13T08:03:37.795Z,8.76
2023-01-13T08:04:37.771Z,8.77
2023-01-13T08:05:37.978Z,8.77
2023-01-13T08:06:37.741Z,8.77
2023-01-13T08:07:37.734Z,8.81
2023-01-13T08:08:37.765Z,8.81
2023-01-13T08:09:37.710Z,8.81
2023-01-13T08:10:37.710Z,8.84
2023-01-13T08:11:37.797Z,8.89
2023-01-13T08:12:37.685Z,8.96
2023-01-13T08:13:37.672Z,9.02
2023-01-13T08:14:37.655Z,8.98
2023-01-13T08:15:37.664Z,9.01
2023-01-13T08:16:37.701Z,9.01
2023-01-13T08:17:37.626Z,9.04
2023-01-13T08:18:37.621Z,9.04
2023-01-13T08:19:37.629Z,9.09
2023-01-13T08:20:37.596Z,9.12
2023-01-13T08:21:43.619Z,9.17
2023-01-13T08:22:37.577Z,9.16
2023-01-13T08:23:37.570Z,9.25
2023-01-13T08:24:43.663Z,9.25
2023-01-13T08:25:43.771Z,9.25
2023-01-13T08:26:37.642Z,9.30
2023-01-13T08:27:37.518Z,9.31
2023-01-13T08:28:37.510Z,9.39
2023-01-13T08:29:37.499Z,9.49
2023-01-13T08:30:37.530Z,9.49
2023-01-13T08:31:37.492Z,9.56
2023-01-13T08:32:37.467Z,9.63
2023-01-13T08:33:37.461Z,9.68
2023-01-13T08:34:37.461Z,9.73
2023-01-13T08:35:37.637Z,9.79
2023-01-13T08:36:37.440Z,9.89
2023-01-13T08:37:38.460Z,9.94
2023-01-13T08:38:37.438Z,10.14
2023-01-13T08:39:37.389Z,10.30
2023-01-13T08:40:37.400Z,10.48
2023-01-13T08:41:37.380Z,10.59
2023-01-13T08:42:37.567Z,10.95
2023-01-13T08:43:37.556Z,11.17
2023-01-13T08:44:37.332Z,11.22
2023-01-13T08:45:37.325Z,11.42
2023-01-13T08:46:37.315Z,11.28
2023-01-13T08:47:43.326Z,11.55
2023-01-13T08:48:37.311Z,11.44
2023-01-13T08:49:37.284Z,11.29
2023-01-13T08:50:37.264Z,12.00
2023-01-13T08:51:37.255Z,12.36
2023-01-13T08:52:37.458Z,12.56
2023-01-13T08:53:37.240Z,13.05
2023-01-13T08:54:37.444Z,13.19
2023-01-13T08:55:37.216Z,13.22
2023-01-13T08:56:37.290Z,13.30
2023-01-13T08:57:37.192Z,12.97
2023-01-13T08:58:37.335Z,12.61
2023-01-13T08:59:37.167Z,12.41
2023-01-13T09:00:37.160Z,13.03
2023-01-13T09:01:37.277Z,13.99
2023-01-13T09:02:37.151Z,13.61
2023-01-13T09:03:37.133Z,12.92
2023-01-13T09:04:37.148Z,12.45
2023-01-13T09:05:43.116Z,12.27
2023-01-13T09:06:37.111Z,12.22
2023-01-13T09:07:37.113Z,12.01
2023-01-13T09:08:37.076Z,11.95
2023-01-13T09:09:37.068Z,11.79
2023-01-13T09:10:37.054Z,11.49
2023-01-13T09:11:37.054Z,11.13
2023-01-13T09:12:37.063Z,10.91
2023-01-13T09:13:37.034Z,10.73
2023-01-13T09:14:37.017Z,10.65
2023-01-13T09:15:37.159Z,10.59
2023-01-13T09:16:37.190Z,10.48
2023-01-13T09:17:36.988Z,10.41
2023-01-13T09:18:36.970Z,10.25
2023-01-13T09:19:36.970Z,10.25
2023-01-13T09:20:36.960Z,10.17
2023-01-13T09:21:36.934Z,10.18
2023-01-13T09:22:36.929Z,10.11
2023-01-13T09:23:36.931Z,10.01
2023-01-13T09:24:36.916Z,9.89
2023-01-13T09:25:36.910Z,9.86
2023-01-13T09:26:37.145Z,9.84
2023-01-13T09:27:36.882Z,9.84
2023-01-13T09:28:36.900Z,9.86
2023-01-13T09:29:36.905Z,9.87
2023-01-13T09:31:13.590Z,9.83
2023-01-13T09:32:13.544Z,9.84
2023-01-13T09:33:13.529Z,9.86
2023-01-13T09:34:13.518Z,9.83
2023-01-13T09:35:19.511Z,9.86
2023-01-13T09:36:13.493Z,9.86
2023-01-13T09:37:13.599Z,9.86
2023-01-13T09:38:13.694Z,9.84
2023-01-13T09:39:13.670Z,9.94
2023-01-13T09:40:13.456Z,10.01
2023-01-13T09:41:13.429Z,10.27
2023-01-13T09:42:13.532Z,10.32
2023-01-13T09:43:13.413Z,10.26
2023-01-13T09:44:13.438Z,10.23
2023-01-13T09:45:13.398Z,10.23
2023-01-13T09:46:13.443Z,10.26
2023-01-13T09:47:14.205Z,10.23
2023-01-13T09:48:13.571Z,10.20
2023-01-13T09:49:13.364Z,10.25
2023-01-13T09:50:13.342Z,10.22
2023-01-13T09:51:13.384Z,10.14
2023-01-13T09:52:13.329Z,9.96
2023-01-13T09:53:13.309Z,9.93
2023-01-13T09:54:13.304Z,9.87
2023-01-13T09:55:13.286Z,9.84
2023-01-13T09:56:13.283Z,9.89
2023-01-13T09:57:13.309Z,9.86
2023-01-13T09:58:13.256Z,9.87
2023-01-13T09:59:13.265Z,9.90
2023-01-13T10:00:13.263Z,10.01
2023-01-13T10:01:13.334Z,10.08
2023-01-13T10:02:13.211Z,10.22
2023-01-13T10:03:13.243Z,10.36
2023-01-13T10:04:13.444Z,10.44
2023-01-13T10:05:13.183Z,10.48
2023-01-13T10:06:13.185Z,10.51
2023-01-13T10:07:13.163Z,10.52
2023-01-13T10:08:13.162Z,10.45
2023-01-13T10:09:13.297Z,10.44
2023-01-13T10:10:13.145Z,10.36
2023-01-13T10:11:13.136Z,10.42
2023-01-13T10:12:13.316Z,10.44
2023-01-13T10:13:13.100Z,10.44
2023-01-13T10:14:13.098Z,10.48
2023-01-13T10:15:13.296Z,10.58
2023-01-13T10:16:19.234Z,10.73
2023-01-13T10:17:13.083Z,11.01
2023-01-13T10:18:13.050Z,12.53
2023-01-13T10:19:19.048Z,13.35
2023-01-13T10:20:19.046Z,14.22
2023-01-13T10:21:19.227Z,14.40
2023-01-13T10:22:19.023Z,14.17
2023-01-13T10:26:02.604Z,13.76
2023-01-13T10:27:02.515Z,13.63
2023-01-13T10:28:02.501Z,13.14
2023-01-13T10:29:02.701Z,12.89
2023-01-13T10:30:02.484Z,12.27
2023-01-13T10:31:02.631Z,11.90
2023-01-13T10:32:02.498Z,11.62
2023-01-13T10:33:02.446Z,11.95
2023-01-13T10:34:02.433Z,11.70
2023-01-13T10:35:02.428Z,12.27
2023-01-13T10:36:02.613Z,12.78
2023-01-13T10:37:02.399Z,12.38
2023-01-13T10:38:08.627Z,12.04
2023-01-13T10:39:02.390Z,11.82
2023-01-13T10:40:02.367Z,11.52
2023-01-13T10:41:02.375Z,11.37
2023-01-13T10:42:02.362Z,12.15
2023-01-13T10:43:08.373Z,12.12
2023-01-13T10:44:02.385Z,11.91
2023-01-13T10:45:02.330Z,11.61
2023-01-13T10:46:08.396Z,11.47
2023-01-13T10:47:02.299Z,11.28
2023-01-13T10:48:02.323Z,11.09
2023-01-13T10:49:02.378Z,11.05
2023-01-13T10:50:02.270Z,10.93
2023-01-13T10:51:02.255Z,10.90
2023-01-13T10:52:02.379Z,10.95
2023-01-13T10:53:02.238Z,10.99
2023-01-13T10:54:02.223Z,10.98
2023-01-13T10:55:02.213Z,11.02
2023-01-13T10:56:08.226Z,11.14
2023-01-13T10:57:02.212Z,11.16
2023-01-13T10:58:02.205Z,11.02
2023-01-13T10:59:08.191Z,10.95
2023-01-13T11:00:02.216Z,11.10
2023-01-13T11:01:02.298Z,11.36
2023-01-13T11:02:03.938Z,11.46
2023-01-13T11:03:08.374Z,11.57
2023-01-13T11:04:02.323Z,11.39
2023-01-13T11:05:02.158Z,11.35
2023-01-13T11:06:02.106Z,11.21
2023-01-13T11:07:02.139Z,11.09
2023-01-13T11:08:02.080Z,10.96
2023-01-13T11:09:02.078Z,10.90
2023-01-13T11:10:02.063Z,10.81
2023-01-13T11:11:02.062Z,10.70
2023-01-13T11:12:02.045Z,10.65
2023-01-13T11:13:04.363Z,10.67
2023-01-13T11:14:02.036Z,10.67
2023-01-13T11:15:04.061Z,10.65
2023-01-13T11:16:02.040Z,10.59
2023-01-13T11:17:02.003Z,10.51
2023-01-13T11:18:01.985Z,10.44
2023-01-13T11:19:02.085Z,10.42
2023-01-13T11:20:01.992Z,10.48
2023-01-13T11:21:02.152Z,10.48
2023-01-13T11:22:07.948Z,10.60
2023-01-13T11:23:01.932Z,10.73
2023-01-13T11:24:08.024Z,10.78
2023-01-13T11:25:01.997Z,10.75
2023-01-13T11:26:01.896Z,10.50
2023-01-13T11:27:01.922Z,10.41
2023-01-13T11:28:02.075Z,10.44
2023-01-13T11:29:01.864Z,10.54
2023-01-13T11:30:01.949Z,10.51
2023-01-13T11:31:01.876Z,10.45
2023-01-13T11:32:01.837Z,10.27
2023-01-13T11:33:01.823Z,10.27
2023-01-13T11:34:01.971Z,10.11
2023-01-13T11:35:01.823Z,10.08
2023-01-13T11:36:01.806Z,9.99
2023-01-13T11:37:02.005Z,9.90
2023-01-13T11:38:01.807Z,9.93
2023-01-13T11:39:01.982Z,9.87
2023-01-13T11:40:02.180Z,9.75
2023-01-13T11:41:07.778Z,9.55
2023-01-13T11:42:01.740Z,9.41
2023-01-13T11:43:01.731Z,9.27
2023-01-13T11:44:01.710Z,9.19
2023-01-13T11:45:01.709Z,9.12
2023-01-13T11:46:01.702Z,9.07
2023-01-13T11:47:01.725Z,8.95
2023-01-13T11:48:01.684Z,8.83
2023-01-13T11:51:42.287Z,8.55
2023-01-13T11:52:42.207Z,8.52
2023-01-13T11:53:42.189Z,8.41
2023-01-13T11:54:43.300Z,8.44
2023-01-13T11:55:48.212Z,8.33
2023-01-13T11:56:42.205Z,8.28
2023-01-13T11:57:42.357Z,8.27
2023-01-13T11:58:50.932Z,8.19
2023-01-13T11:59:42.138Z,8.15
2023-01-13T12:00:42.123Z,8.04
2023-01-13T12:01:42.156Z,8.03
2023-01-13T12:02:42.398Z,8.00
2023-01-13T12:03:42.090Z,8.03
2023-01-13T12:04:48.302Z,8.01
2023-01-13T12:05:48.072Z,8.03
2023-01-13T12:06:42.055Z,8.04
2023-01-13T12:07:48.234Z,8.04
2023-01-13T12:08:42.036Z,8.09
2023-01-13T12:09:42.027Z,8.19
2023-01-13T12:10:42.021Z,8.28
2023-01-13T12:11:42.220Z,8.50
2023-01-13T12:12:42.023Z,8.66
2023-01-13T12:13:41.981Z,8.70
2023-01-13T12:14:41.979Z,8.80
2023-01-13T12:15:41.960Z,8.92
2023-01-13T12:16:42.017Z,8.96
2023-01-13T12:17:41.957Z,9.02
2023-01-13T12:18:42.101Z,9.09
2023-01-13T12:19:47.928Z,9.14
2023-01-13T12:20:41.926Z,9.16
2023-01-13T12:21:41.911Z,9.13
2023-01-13T12:22:41.892Z,9.10
2023-01-13T12:23:41.901Z,9.10
2023-01-13T12:24:41.877Z,9.16
2023-01-13T12:25:41.871Z,9.12
2023-01-13T12:26:41.864Z,9.10
2023-01-13T12:27:42.050Z,9.05
2023-01-13T12:28:41.900Z,9.13
2023-01-13T12:29:41.827Z,9.27
2023-01-13T12:30:42.010Z,9.32
2023-01-13T12:31:42.084Z,9.39
2023-01-13T12:32:47.814Z,9.57
2023-01-13T12:33:41.788Z,9.68
2023-01-13T12:34:41.785Z,9.84
2023-01-13T12:35:41.772Z,9.96
2023-01-13T12:36:42.054Z,10.07
2023-01-13T12:37:41.733Z,10.05
2023-01-13T12:38:41.727Z,10.05
2023-01-13T12:39:41.750Z,10.02
2023-01-13T12:40:41.708Z,10.01
2023-01-13T12:41:41.693Z,10.05
2023-01-13T12:42:41.682Z,10.04
2023-01-13T12:43:41.657Z,10.04
2023-01-13T12:44:41.664Z,10.02
2023-01-13T12:45:43.739Z,10.05
2023-01-13T12:46:41.734Z,10.12
2023-01-13T12:47:41.619Z,10.14
2023-01-13T12:48:41.613Z,9.97
2023-01-13T12:49:41.607Z,9.99
2023-01-13T12:50:41.586Z,10.02
2023-01-13T12:51:41.582Z,10.15
2023-01-13T12:52:41.576Z,10.33
2023-01-13T12:53:41.565Z,10.44
2023-01-13T12:54:41.555Z,10.51
2023-01-13T12:55:41.571Z,10.48
2023-01-13T12:56:47.744Z,10.44
2023-01-13T12:57:41.519Z,10.50
2023-01-13T12:58:41.528Z,10.47
2023-01-13T12:59:41.500Z,10.52
2023-01-13T13:00:41.706Z,10.69
2023-01-13T13:01:41.806Z,10.90
2023-01-13T13:02:41.558Z,11.01
2023-01-13T13:03:43.514Z,11.06
2023-01-13T13:04:47.663Z,11.17
2023-01-13T13:05:41.436Z,11.27
2023-01-13T13:06:41.429Z,11.54
2023-01-13T13:07:47.461Z,11.61
2023-01-13T13:08:41.413Z,11.70
2023-01-13T13:09:41.422Z,11.73
2023-01-13T13:10:41.391Z,11.61
2023-01-13T13:11:41.449Z,11.55
2023-01-13T13:12:41.371Z,11.33
2023-01-13T13:13:41.359Z,11.21
2023-01-13T13:14:41.469Z,11.05
2023-01-13T13:15:41.340Z,10.90
2023-01-13T13:16:41.363Z,10.67
2023-01-13T13:17:47.336Z,10.60
2023-01-13T13:18:41.508Z,10.44
2023-01-13T13:19:41.507Z,10.26
2023-01-13T13:20:41.286Z,10.15
2023-01-13T13:21:41.269Z,10.08
2023-01-13T13:22:41.270Z,9.99
2023-01-13T13:23:41.282Z,9.89
2023-01-13T13:24:47.260Z,9.83
2023-01-13T13:25:41.434Z,9.79
2023-01-13T13:26:41.385Z,9.74
2023-01-13T13:27:41.241Z,9.71
2023-01-13T13:28:41.204Z,9.77
2023-01-13T13:29:41.193Z,9.83
2023-01-13T13:30:41.222Z,10.08
2023-01-13T13:31:41.547Z,10.47
2023-01-13T13:32:43.155Z,10.80
2023-01-13T13:33:41.138Z,11.01
2023-01-13T13:34:41.136Z,11.05
2023-01-13T13:35:41.119Z,11.10
2023-01-13T13:36:41.109Z,11.16
2023-01-13T13:37:41.099Z,11.21
2023-01-13T13:38:47.109Z,11.27
2023-01-13T13:39:43.089Z,11.54
2023-01-13T13:40:41.074Z,11.69
2023-01-13T13:41:41.059Z,11.88
2023-01-13T13:42:41.056Z,11.91
2023-01-13T13:43:41.272Z,11.82
2023-01-13T13:44:41.018Z,11.61
2023-01-13T13:45:41.069Z,11.37
2023-01-13T13:46:41.406Z,11.18
2023-01-13T13:47:40.993Z,11.08
2023-01-13T13:48:46.992Z,11.06
2023-01-13T13:49:40.968Z,11.06
2023-01-13T13:50:40.981Z,10.96
2023-01-13T13:51:40.987Z,10.90
2023-01-13T13:52:40.954Z,10.93
2023-01-13T13:53:41.080Z,10.88
2023-01-13T13:54:40.970Z,10.90
2023-01-13T13:55:40.911Z,10.81
2023-01-13T13:56:40.904Z,10.87
2023-01-13T13:57:40.898Z,10.84
2023-01-13T13:58:41.051Z,10.75
2023-01-13T13:59:46.908Z,10.75
2023-01-13T14:00:41.068Z,10.63
2023-01-13T14:01:41.075Z,10.63
2023-01-13T14:02:40.835Z,10.59
2023-01-13T14:03:40.835Z,10.65
2023-01-13T14:04:41.021Z,10.59
2023-01-13T14:05:46.813Z,10.58
2023-01-13T14:06:46.797Z,10.51
2023-01-13T14:07:40.781Z,10.55
2023-01-13T14:08:46.858Z,10.62
2023-01-13T14:09:40.835Z,10.62
2023-01-13T14:10:40.961Z,10.63
2023-01-13T14:11:40.710Z,10.54
2023-01-13T14:12:40.695Z,10.45
2023-01-13T14:13:40.686Z,10.38
2023-01-13T14:14:40.667Z,10.30
2023-01-13T14:15:40.728Z,10.15
2023-01-13T14:16:40.848Z,10.15
2023-01-13T14:17:40.634Z,10.17
2023-01-13T14:18:40.632Z,10.30
2023-01-13T14:19:46.817Z,10.47
2023-01-13T14:20:40.705Z,10.58
2023-01-13T14:21:40.590Z,10.63
2023-01-13T14:22:40.573Z,10.78
2023-01-13T14:23:46.576Z,10.87
2023-01-13T14:24:40.564Z,10.87
2023-01-13T14:25:40.556Z,10.80
2023-01-13T14:26:40.536Z,10.80
2023-01-13T14:27:40.531Z,10.70
2023-01-13T14:28:40.522Z,10.45
2023-01-13T14:29:40.499Z,10.23
2023-01-13T14:30:46.573Z,10.01
2023-01-13T14:31:40.490Z,9.77
2023-01-13T14:33:21.200Z,9.53
2023-01-13T14:34:32.305Z,9.38
2023-01-13T14:35:22.192Z,9.30
2023-01-13T14:36:21.193Z,9.13
2023-01-13T14:37:21.121Z,9.04
2023-01-13T14:38:21.113Z,8.95
2023-01-13T14:39:21.106Z,8.81
2023-01-13T14:40:21.094Z,8.77
2023-01-13T14:41:21.082Z,8.73
2023-01-13T14:42:21.062Z,8.65
2023-01-13T14:43:21.062Z,8.62
2023-01-13T14:44:21.070Z,8.58
2023-01-13T14:45:21.234Z,8.53
2023-01-13T14:46:21.154Z,8.47
2023-01-13T14:47:21.033Z,8.47
2023-01-13T14:48:21.003Z,8.53
2023-01-13T14:49:27.008Z,8.47
2023-01-13T14:50:21.172Z,8.47
2023-01-13T14:51:20.978Z,8.43
2023-01-13T14:52:20.964Z,8.40
2023-01-13T14:53:26.965Z,8.32
2023-01-13T14:54:26.964Z,8.35
2023-01-13T14:55:57.857Z,8.29
2023-01-13T14:56:57.615Z,8.22
2023-01-13T14:57:57.599Z,8.25
2023-01-13T14:58:57.595Z,8.21
2023-01-13T14:59:57.785Z,8.15
2023-01-13T15:01:03.606Z,8.17
2023-01-13T15:01:57.628Z,8.21
2023-01-13T15:02:57.666Z,8.24
2023-01-13T15:03:57.537Z,8.18
2023-01-13T15:04:57.532Z,8.11
2023-01-13T15:05:57.735Z,8.10
2023-01-13T15:06:59.570Z,8.07
2023-01-13T15:07:57.516Z,8.03
2023-01-13T15:08:57.496Z,7.99
2023-01-13T15:09:57.487Z,8.07
2023-01-13T15:10:57.461Z,8.11
2023-01-13T15:11:57.651Z,8.11
2023-01-13T15:12:57.439Z,8.07
2023-01-13T15:13:57.437Z,8.10
2023-01-13T15:14:57.433Z,8.09
2023-01-13T15:15:57.472Z,8.07
2023-01-13T15:17:03.637Z,8.06
2023-01-13T15:17:57.404Z,8.07
2023-01-13T15:18:57.379Z,7.99
2023-01-13T15:19:57.373Z,7.92
2023-01-13T15:20:57.586Z,7.86
2023-01-13T15:21:57.553Z,7.84
2023-01-13T15:22:57.485Z,7.79
2023-01-13T15:23:57.345Z,7.79
2023-01-13T15:24:57.312Z,7.68
2023-01-13T15:25:57.301Z,7.67
2023-01-13T15:26:57.301Z,7.68
2023-01-13T15:27:57.607Z,7.73
2023-01-13T15:28:57.277Z,7.70
2023-01-13T15:29:57.277Z,7.68
2023-01-13T15:30:57.269Z,7.63
2023-01-13T15:31:57.265Z,7.60
2023-01-13T15:32:57.321Z,7.60
2023-01-13T15:33:57.231Z,7.57
2023-01-13T15:34:57.222Z,7.64
2023-01-13T15:36:03.244Z,7.55
2023-01-13T15:36:59.253Z,7.63
2023-01-13T15:37:57.386Z,7.61
2023-01-13T15:38:57.175Z,7.57
2023-01-13T15:39:57.164Z,7.53
2023-01-13T15:40:57.149Z,7.57
2023-01-13T15:41:57.141Z,7.57
2023-01-13T15:42:57.134Z,7.64
2023-01-13T15:43:57.135Z,7.63
2023-01-13T15:44:57.108Z,7.66
2023-01-13T15:45:57.118Z,7.70
2023-01-13T15:46:57.096Z,7.70
2023-01-13T15:47:57.072Z,7.67
2023-01-13T15:48:57.142Z,7.66
2023-01-13T15:49:59.144Z,7.68
2023-01-13T15:50:57.049Z,7.61
2023-01-13T15:51:57.052Z,7.63
2023-01-13T15:52:57.250Z,7.60
2023-01-13T15:53:57.023Z,7.55
2023-01-13T15:54:57.119Z,7.52
2023-01-13T15:55:56.991Z,7.45
2023-01-13T15:56:56.982Z,7.37
2023-01-13T15:57:57.185Z,7.31
2023-01-13T15:58:56.961Z,7.24
2023-01-13T15:59:56.959Z,7.23
2023-01-13T16:00:57.071Z,7.23
2023-01-13T16:01:56.942Z,7.21
2023-01-13T16:02:57.033Z,7.23
2023-01-13T16:03:56.919Z,7.27
2023-01-13T16:04:56.930Z,7.24
2023-01-13T16:05:57.053Z,7.24
2023-01-13T16:06:56.893Z,7.21
2023-01-13T16:07:56.897Z,7.17
2023-01-13T16:08:56.871Z,7.16
2023-01-13T16:09:56.856Z,7.10
2023-01-13T16:10:56.852Z,7.07
2023-01-13T16:11:56.991Z,7.06
2023-01-13T16:12:56.834Z,7.13
2023-01-13T16:13:56.814Z,7.17
2023-01-13T16:14:56.809Z,7.37
2023-01-13T16:15:56.887Z,7.48
2023-01-13T16:16:56.945Z,7.50
2023-01-13T16:17:56.775Z,7.58
2023-01-13T16:18:56.926Z,7.68
2023-01-13T16:19:56.764Z,7.73
2023-01-13T16:20:56.783Z,7.73
2023-01-13T16:21:56.751Z,7.78
2023-01-13T16:22:56.753Z,7.78
2023-01-13T16:23:56.731Z,7.81
2023-01-13T16:25:02.741Z,7.82
2023-01-13T16:25:56.711Z,7.79
2023-01-13T16:26:56.711Z,7.76
2023-01-13T16:27:56.697Z,7.68
2023-01-13T16:28:56.691Z,7.68
2023-01-13T16:29:56.668Z,7.64
2023-01-13T16:31:02.686Z,7.57
2023-01-13T16:31:56.673Z,7.53
2023-01-13T16:32:56.657Z,7.48
2023-01-13T16:33:56.641Z,7.43
2023-01-13T16:54:56.512Z,6.76
2023-01-13T16:57:56.496Z,6.79
2023-01-13T16:59:02.496Z,6.86
2023-01-13T16:59:56.667Z,6.87
2023-01-13T17:02:56.454Z,6.94
2023-01-13T17:03:56.473Z,7.03
2023-01-13T17:04:56.423Z,7.09
2023-01-13T17:05:56.422Z,7.07
2023-01-13T17:06:56.409Z,7.10
2023-01-13T17:07:56.420Z,7.16
2023-01-13T17:08:56.377Z,7.27
2023-01-13T17:09:56.364Z,7.31
2023-01-13T17:10:56.363Z,7.30
2023-01-13T17:11:56.357Z,7.39
2023-01-13T17:12:58.276Z,7.31
2023-01-13T17:13:56.481Z,7.28
2023-01-13T17:14:56.325Z,7.24
2023-01-13T17:15:56.327Z,7.13
2023-01-13T17:16:58.378Z,7.12
2023-01-13T17:17:56.295Z,7.07
2023-01-13T17:18:56.388Z,6.98
2023-01-13T17:19:56.264Z,6.97
2023-01-13T17:20:56.269Z,6.90
2023-01-13T17:21:56.258Z,6.83
2023-01-13T17:23:02.286Z,6.79
2023-01-13T17:23:56.431Z,6.80
2023-01-13T17:24:56.316Z,6.76
2023-01-13T17:25:56.200Z,6.75
2023-01-13T17:26:56.198Z,6.79
2023-01-13T17:27:56.184Z,6.75
2023-01-13T17:28:56.194Z,6.78
2023-01-13T17:29:56.276Z,6.76
2023-01-13T17:31:56.186Z,6.68
2023-01-13T17:32:56.130Z,6.66
2023-01-13T17:33:56.148Z,6.63
2023-01-13T17:34:56.141Z,6.57
2023-01-13T17:35:56.167Z,6.53
2023-01-13T17:36:56.105Z,6.48
2023-01-13T17:37:56.084Z,6.45
2023-01-13T17:39:56.283Z,6.45
2023-01-13T17:40:56.050Z,6.45
2023-01-13T17:42:56.031Z,6.48
2023-01-13T17:43:56.027Z,6.45
2023-01-13T17:44:56.022Z,6.47
2023-01-13T17:45:56.022Z,6.53
2023-01-13T17:46:56.097Z,6.61
2023-01-13T17:47:55.990Z,6.63
2023-01-13T17:48:55.964Z,6.69
2023-01-13T17:49:55.966Z,6.73
2023-01-13T17:50:55.947Z,6.76
2023-01-13T17:51:55.940Z,6.88
2023-01-13T17:52:55.937Z,6.91
2023-01-13T17:53:55.923Z,6.94
2023-01-13T17:54:55.956Z,7.02
2023-01-13T17:55:56.095Z,6.99
2023-01-13T17:56:55.989Z,6.97
2023-01-13T17:58:01.904Z,6.95
2023-01-13T17:59:01.881Z,6.90
2023-01-13T17:59:55.867Z,6.83
2023-01-13T18:00:55.906Z,6.78
2023-01-13T18:02:55.944Z,6.72
2023-01-13T18:03:55.822Z,6.66
2023-01-13T18:04:55.810Z,6.65
2023-01-13T18:05:55.796Z,6.66
2023-01-13T18:06:55.783Z,6.58
2023-01-13T18:07:55.767Z,6.55
2023-01-13T18:08:55.753Z,6.53
2023-01-13T18:09:55.765Z,6.43
2023-01-13T18:11:01.773Z,6.39
2023-01-13T18:11:55.733Z,6.35
2023-01-13T18:12:55.815Z,6.22
2023-01-13T18:13:55.700Z,6.19
2023-01-13T18:14:55.690Z,6.11
2023-01-13T18:15:55.683Z,6.18
2023-01-13T18:16:55.734Z,6.30
2023-01-13T18:18:55.912Z,6.40
2023-01-13T18:19:55.653Z,6.40
2023-01-13T18:20:55.641Z,6.42
2023-01-13T18:22:38.603Z,6.45
2023-01-13T18:23:32.363Z,6.43
2023-01-13T18:24:32.355Z,6.47
2023-01-13T18:25:32.353Z,6.47
2023-01-13T18:26:32.356Z,6.48
2023-01-13T18:28:32.324Z,6.57
2023-01-13T18:29:32.421Z,6.65
2023-01-13T18:30:32.298Z,6.65
2023-01-13T18:31:38.297Z,6.68
2023-01-13T18:32:33.146Z,6.73
2023-01-13T18:33:32.271Z,6.75
2023-01-13T18:34:32.249Z,6.75
2023-01-13T18:35:38.267Z,6.75
2023-01-13T18:36:32.243Z,6.73
2023-01-13T18:37:32.251Z,6.78
2023-01-13T18:38:32.464Z,6.76
2023-01-13T18:39:32.200Z,6.72
2023-01-13T18:40:32.199Z,6.70
2023-01-13T18:41:38.227Z,6.72
2023-01-13T18:42:32.173Z,6.66
2023-01-13T18:43:32.183Z,6.58
2023-01-13T18:44:32.150Z,6.50
2023-01-13T18:45:32.171Z,6.42
2023-01-13T18:46:32.174Z,6.37
2023-01-13T18:47:32.135Z,6.32
2023-01-13T18:48:32.119Z,6.22
2023-01-13T18:49:32.155Z,6.19
2023-01-13T18:50:38.102Z,6.21
2023-01-13T18:51:32.089Z,6.17
2023-01-13T18:52:32.078Z,6.18
2023-01-13T18:53:32.064Z,6.15
2023-01-13T18:54:32.043Z,6.08
2023-01-13T18:55:32.310Z,6.09
2023-01-13T18:56:32.028Z,6.09
2023-01-13T18:57:32.035Z,6.09
2023-01-13T18:58:32.013Z,6.14
2023-01-13T18:59:32.002Z,6.14
2023-01-13T19:00:37.993Z,6.17
2023-01-13T19:01:32.064Z,6.12
2023-01-13T19:02:32.029Z,6.14
2023-01-13T19:03:31.967Z,6.17
2023-01-13T19:04:31.937Z,6.21
2023-01-13T19:05:32.045Z,6.26
2023-01-13T19:06:32.719Z,6.33
2023-01-13T19:07:31.921Z,6.30
2023-01-13T19:08:31.931Z,6.30
2023-01-13T19:09:31.894Z,6.30
2023-01-13T19:10:32.100Z,6.29
2023-01-13T19:11:31.875Z,6.26
2023-01-13T19:12:31.868Z,6.22
2023-01-13T19:13:31.882Z,6.19
2023-01-13T19:14:32.051Z,6.21
2023-01-13T19:15:32.022Z,6.17
2023-01-13T19:16:31.836Z,6.19
2023-01-13T19:17:31.825Z,6.14
2023-01-13T19:18:31.808Z,6.08
2023-01-13T19:19:33.804Z,6.00
2023-01-13T19:20:37.783Z,6.03
2023-01-13T19:22:16.604Z,6.01
2023-01-13T19:23:16.589Z,6.01
2023-01-13T19:24:16.576Z,6.03
2023-01-13T19:25:16.576Z,6.03
2023-01-13T19:26:16.558Z,6.09
2023-01-13T19:27:16.547Z,6.14
2023-01-13T19:28:16.544Z,6.27
2023-01-13T19:29:16.561Z,6.29
2023-01-13T19:30:16.512Z,6.35
2023-01-13T19:31:16.558Z,6.45
2023-01-13T19:32:16.700Z,6.50
2023-01-13T19:33:16.495Z,6.54
2023-01-13T19:34:16.466Z,6.61
2023-01-13T19:35:16.472Z,6.63
2023-01-13T19:36:16.451Z,6.69
2023-01-13T19:37:16.455Z,6.76
2023-01-13T19:38:16.630Z,6.76
2023-01-13T19:39:16.420Z,6.80
2023-01-13T19:40:16.640Z,6.75
2023-01-13T19:41:16.410Z,6.80
2023-01-13T19:42:16.405Z,6.76
2023-01-13T19:43:16.408Z,6.79
2023-01-13T19:44:16.381Z,6.84
2023-01-13T19:45:16.388Z,6.88
2023-01-13T19:46:16.369Z,6.90
2023-01-13T19:47:16.343Z,6.88
2023-01-13T19:48:22.352Z,6.91
2023-01-13T19:49:16.527Z,6.94
2023-01-13T19:50:16.340Z,6.98
2023-01-13T19:54:38.229Z,7.07
2023-01-13T19:55:32.242Z,7.06
2023-01-13T19:56:32.211Z,7.05
2023-01-13T19:57:32.213Z,7.03
2023-01-13T19:58:32.177Z,7.06
2023-01-13T20:00:18.959Z,7.05
2023-01-13T20:01:12.951Z,7.03
2023-01-13T20:02:13.004Z,6.98
2023-01-13T20:03:12.977Z,6.88
2023-01-13T20:04:12.906Z,6.91
2023-01-13T20:06:34.549Z,6.95
2023-01-13T20:07:34.393Z,6.94
2023-01-13T20:09:15.134Z,6.90
2023-01-13T20:10:15.126Z,6.88
2023-01-13T20:11:15.119Z,6.90
2023-01-13T20:12:21.150Z,6.97
2023-01-13T20:13:15.087Z,6.98
2023-01-13T20:14:21.100Z,6.99
2023-01-13T20:15:21.112Z,7.05
2023-01-13T20:16:15.101Z,6.98
2023-01-13T20:17:15.064Z,6.98
2023-01-13T20:18:15.036Z,6.95
2023-01-13T20:19:15.026Z,6.95
2023-01-13T20:20:15.227Z,6.94
2023-01-13T20:21:14.999Z,6.91
2023-01-13T20:22:15.011Z,6.91
2023-01-13T20:25:35.500Z,6.83
2023-01-13T20:26:29.478Z,6.75
2023-01-13T20:27:29.259Z,6.72
2023-01-13T20:28:29.259Z,6.65
2023-01-13T20:29:29.243Z,6.61
2023-01-13T20:30:29.300Z,6.55
2023-01-13T20:32:12.193Z,6.53
2023-01-13T20:33:06.171Z,6.54
2023-01-13T20:34:06.160Z,6.54
2023-01-13T20:35:06.144Z,6.58
2023-01-13T20:36:06.145Z,6.66
2023-01-13T20:37:06.125Z,6.69
2023-01-13T20:39:19.625Z,6.73
2023-01-13T20:40:19.611Z,6.61
2023-01-13T20:41:19.603Z,6.55
2023-01-13T20:42:19.592Z,6.51
2023-01-13T20:43:19.585Z,6.43
2023-01-13T20:44:19.571Z,6.43
2023-01-13T20:45:19.570Z,6.37
2023-01-13T20:46:19.634Z,6.36
2023-01-13T20:47:19.547Z,6.30
2023-01-13T20:48:19.540Z,6.27
2023-01-13T20:49:19.524Z,6.21
2023-01-13T20:50:19.518Z,6.22